Terminal Aerodrome Forecast
Issued by NWS Chicago, IL

Home | Current Version | Previous Version | Text Only | Print | Product List | Glossary On
Versions: 1 2 3 4 5 6 7 8 9 10 11 12 13 14 15 16 17 18 19 20
000
FTUS43 KLOT 240536
TAFRFD
TAF
KRFD 240536Z 2406/2506 03005KT P6SM BKN150
     FM241000 01005KT P6SM SCT030 BKN050 OVC100
     FM241600 02009KT P6SM SCT040 BKN120
     FM242000 02012KT P6SM BKN120
     FM250200 04014G21KT P6SM FEW020 SCT040 BKN100=

USA.gov is the U.S. government's official web portal to all federal, state and local government web resources and services.